createdAt,value
2019-05-13T00:00:58.744Z,6.49
2019-05-13T00:03:33.393Z,6.56
2019-05-13T00:06:06.236Z,6.58
2019-05-13T00:08:38.885Z,6.59
2019-05-13T00:11:13.673Z,6.47
2019-05-13T00:13:46.124Z,6.36
2019-05-13T00:16:18.924Z,6.20
2019-05-13T00:18:53.479Z,6.25
2019-05-13T00:21:25.878Z,6.31
2019-05-13T00:23:58.618Z,6.22
2019-05-13T00:26:33.605Z,6.12
2019-05-13T00:29:05.547Z,5.95
2019-05-13T00:31:38.143Z,6.08
2019-05-13T00:34:10.977Z,5.93
2019-05-13T00:36:44.544Z,6.01
2019-05-13T00:39:17.303Z,5.87
2019-05-13T00:41:50.068Z,5.89
2019-05-13T00:44:24.441Z,6.01
2019-05-13T00:46:57.104Z,5.75
2019-05-13T00:49:29.728Z,5.73
2019-05-13T00:52:03.864Z,5.92
2019-05-13T00:54:36.658Z,5.75
2019-05-13T00:57:13.354Z,5.72
2019-05-13T00:59:45.398Z,5.88
2019-05-13T01:02:18.044Z,5.68
2019-05-13T01:04:50.726Z,5.62
2019-05-13T01:07:28.553Z,5.32
2019-05-13T01:09:57.667Z,5.29
2019-05-13T01:12:30.299Z,5.66
2019-05-13T01:15:04.112Z,5.71
2019-05-13T01:17:38.389Z,5.84
2019-05-13T01:20:14.188Z,5.93
2019-05-13T01:22:47.373Z,5.97
2019-05-13T01:25:20.027Z,5.83
2019-05-13T01:27:53.712Z,5.63
2019-05-13T01:30:26.482Z,5.87
2019-05-13T01:32:59.273Z,5.77
2019-05-13T01:35:34.268Z,5.84
2019-05-13T01:38:06.418Z,5.78
2019-05-13T01:40:39.826Z,5.62
2019-05-13T01:43:14.352Z,5.50
2019-05-13T01:45:46.875Z,5.42
2019-05-13T01:48:19.624Z,5.31
2019-05-13T01:50:53.378Z,5.50
2019-05-13T01:53:26.019Z,5.40
2019-05-13T01:55:58.791Z,5.38
2019-05-13T01:58:33.810Z,5.37
2019-05-13T02:01:05.856Z,5.26
2019-05-13T02:03:38.481Z,5.00
2019-05-13T02:06:11.269Z,4.82
2019-05-13T02:08:44.397Z,4.66
2019-05-13T02:11:18.754Z,4.95
2019-05-13T02:13:53.993Z,4.79
2019-05-13T02:16:25.958Z,4.70
2019-05-13T02:18:58.989Z,4.66
2019-05-13T02:21:33.663Z,4.70
2019-05-13T02:24:05.960Z,4.64
2019-05-13T02:26:38.577Z,4.46
2019-05-13T02:29:11.258Z,4.60
2019-05-13T02:31:50.945Z,4.43
2019-05-13T02:34:18.152Z,4.98
2019-05-13T02:36:52.733Z,4.91
2019-05-13T02:39:25.105Z,4.98
2019-05-13T02:41:57.709Z,4.88
2019-05-13T02:44:33.243Z,4.99
2019-05-13T02:47:04.915Z,5.03
2019-05-13T02:49:37.536Z,5.01
2019-05-13T02:52:13.016Z,4.94
2019-05-13T02:54:48.725Z,4.70
2019-05-13T02:57:23.349Z,4.77
2019-05-13T02:59:55.670Z,4.67
2019-05-13T03:02:28.342Z,4.82
2019-05-13T03:05:03.163Z,4.66
2019-05-13T03:07:35.268Z,4.66
2019-05-13T03:10:13.548Z,4.50
2019-05-13T03:12:45.039Z,4.29
2019-05-13T03:15:17.842Z,4.37
2019-05-13T03:18:08.715Z,4.29
2019-05-13T03:20:43.117Z,4.11
2019-05-13T03:23:15.963Z,3.99
2019-05-13T03:25:49.058Z,3.80
2019-05-13T03:28:22.518Z,3.61
2019-05-13T03:30:56.682Z,3.78
2019-05-13T03:33:35.889Z,3.74
2019-05-13T03:36:07.309Z,3.71
2019-05-13T03:38:59.383Z,3.90
2019-05-13T03:41:17.889Z,3.78
2019-05-13T03:43:53.611Z,3.95
2019-05-13T03:46:27.054Z,4.45
2019-05-13T03:49:03.416Z,4.32
2019-05-13T03:51:36.001Z,4.09
2019-05-13T03:54:12.647Z,4.05
2019-05-13T03:56:44.473Z,4.29
2019-05-13T03:59:17.125Z,4.14
2019-05-13T04:01:52.451Z,4.06
2019-05-13T04:04:24.250Z,3.91
2019-05-13T04:06:56.836Z,4.12
2019-05-13T04:09:32.528Z,4.35
2019-05-13T04:12:04.165Z,4.43
2019-05-13T04:14:36.792Z,4.29
2019-05-13T04:17:12.362Z,4.32
2019-05-13T04:19:43.746Z,4.29
2019-05-13T04:22:16.370Z,4.60
2019-05-13T04:24:52.914Z,4.78
2019-05-13T04:27:24.766Z,4.88
2019-05-13T04:29:57.470Z,4.76
2019-05-13T04:32:33.330Z,4.76
2019-05-13T04:35:04.713Z,4.88
2019-05-13T04:37:37.289Z,4.85
2019-05-13T04:40:12.842Z,4.87
2019-05-13T04:42:45.555Z,4.81
2019-05-13T04:45:18.248Z,4.88
2019-05-13T04:47:52.820Z,4.99
2019-05-13T04:50:25.248Z,4.81
2019-05-13T04:52:57.802Z,4.81
2019-05-13T04:55:33.313Z,4.80
2019-05-13T04:58:04.947Z,4.75
2019-05-13T05:01:24.871Z,4.78
2019-05-13T05:04:22.396Z,5.01
2019-05-13T05:07:18.205Z,5.07
2019-05-13T05:10:30.427Z,5.17
2019-05-13T05:13:36.237Z,5.25
2019-05-13T05:17:08.417Z,5.44
2019-05-13T05:20:23.108Z,5.52
2019-05-13T05:23:22.074Z,5.73
2019-05-13T05:26:34.150Z,5.87
2019-05-13T05:29:48.092Z,6.05
2019-05-13T05:33:18.524Z,6.11
2019-05-13T05:36:28.065Z,6.11
2019-05-13T05:39:24.996Z,6.25
2019-05-13T05:41:58.927Z,6.32
2019-05-13T05:44:32.886Z,6.44
2019-05-13T05:47:06.017Z,6.52
2019-05-13T05:49:42.304Z,6.58
2019-05-13T05:52:16.389Z,6.68
2019-05-13T05:54:53.372Z,6.81
2019-05-13T05:57:27.837Z,6.93
2019-05-13T06:00:03.149Z,7.03
2019-05-13T06:02:37.309Z,7.06
2019-05-13T06:05:12.491Z,7.12
2019-05-13T06:07:45.279Z,7.23
2019-05-13T06:10:18.392Z,7.35
2019-05-13T06:12:52.277Z,7.46
2019-05-13T06:15:25.118Z,7.73
2019-05-13T06:17:57.750Z,7.80
2019-05-13T06:20:31.700Z,7.64
2019-05-13T06:23:04.481Z,7.76
2019-05-13T06:25:37.034Z,8.12
2019-05-13T06:28:12.235Z,8.42
2019-05-13T06:30:44.298Z,8.28
2019-05-13T06:33:17.094Z,8.34
2019-05-13T06:35:51.960Z,8.10
2019-05-13T06:38:23.709Z,8.12
2019-05-13T06:41:02.664Z,8.53
2019-05-13T06:43:31.479Z,8.34
2019-05-13T06:46:04.266Z,8.72
2019-05-13T06:48:36.805Z,8.84
2019-05-13T06:51:11.582Z,8.19
2019-05-13T06:53:43.854Z,8.54
2019-05-13T06:56:16.692Z,8.39
2019-05-13T06:58:51.820Z,8.66
2019-05-13T07:01:23.708Z,8.32
2019-05-13T07:03:56.369Z,8.87
2019-05-13T07:06:28.989Z,8.93
2019-05-13T07:09:01.749Z,9.41
2019-05-13T07:11:34.692Z,9.38
2019-05-13T07:14:07.799Z,9.89
2019-05-13T07:16:42.170Z,10.12
2019-05-13T07:19:15.038Z,10.23
2019-05-13T07:21:47.810Z,9.90
2019-05-13T07:24:21.439Z,9.19
2019-05-13T07:26:54.243Z,10.33
2019-05-13T07:29:27.126Z,10.43
2019-05-13T07:32:01.705Z,10.60
2019-05-13T07:34:34.238Z,9.91
2019-05-13T07:37:07.050Z,10.26
2019-05-13T07:39:41.914Z,9.88
2019-05-13T07:42:14.746Z,9.76
2019-05-13T07:44:47.462Z,10.00
2019-05-13T07:47:22.354Z,10.91
2019-05-13T07:49:54.596Z,12.11
2019-05-13T07:52:27.421Z,12.00
2019-05-13T07:55:01.607Z,11.25
2019-05-13T07:57:34.452Z,10.53
2019-05-13T08:00:08.499Z,11.61
2019-05-13T08:02:41.811Z,12.73
2019-05-13T08:05:15.309Z,11.40
2019-05-13T08:07:48.133Z,11.52
2019-05-13T08:10:22.032Z,11.92
2019-05-13T08:12:54.832Z,11.15
2019-05-13T08:15:27.909Z,11.00
2019-05-13T08:18:02.032Z,11.05
2019-05-13T08:20:34.996Z,11.63
2019-05-13T08:23:07.744Z,12.12
2019-05-13T08:25:42.458Z,12.59
2019-05-13T08:28:15.230Z,14.15
2019-05-13T08:30:47.917Z,14.79
2019-05-13T08:33:22.697Z,12.74
2019-05-13T08:35:58.770Z,11.45
2019-05-13T08:38:31.871Z,11.73
2019-05-13T08:41:03.948Z,12.40
2019-05-13T08:43:36.716Z,12.02
2019-05-13T08:46:09.632Z,11.49
2019-05-13T08:48:42.964Z,11.73
2019-05-13T08:51:15.719Z,12.00
2019-05-13T08:53:48.374Z,11.70
2019-05-13T08:56:21.806Z,11.77
2019-05-13T08:58:54.539Z,13.18
2019-05-13T09:01:27.311Z,12.06
2019-05-13T09:04:02.299Z,12.53
2019-05-13T09:06:34.874Z,12.58
2019-05-13T09:09:11.559Z,11.98
2019-05-13T09:11:43.927Z,11.94
2019-05-13T09:14:16.865Z,13.46
2019-05-13T09:16:52.357Z,13.45
2019-05-13T09:19:24.091Z,12.42
2019-05-13T09:21:56.803Z,12.44
2019-05-13T09:24:36.642Z,12.82
2019-05-13T09:27:03.881Z,12.66
2019-05-13T09:29:36.595Z,11.51
2019-05-13T09:32:11.908Z,11.21
2019-05-13T09:34:43.898Z,11.52
2019-05-13T09:37:16.673Z,11.43
2019-05-13T09:39:51.625Z,12.39
2019-05-13T09:42:23.892Z,12.48
2019-05-13T09:44:56.736Z,12.50
2019-05-13T09:47:29.384Z,12.85
2019-05-13T09:50:04.442Z,12.37
2019-05-13T09:52:39.657Z,11.83
2019-05-13T09:55:25.314Z,12.50
2019-05-13T09:57:46.627Z,12.17
2019-05-13T10:00:21.792Z,12.30
2019-05-13T10:02:53.891Z,12.51
2019-05-13T10:05:26.607Z,12.43
2019-05-13T10:08:02.117Z,12.39
2019-05-13T10:10:33.983Z,12.92
2019-05-13T10:13:11.992Z,14.85
2019-05-13T10:15:42.213Z,14.68
2019-05-13T10:18:15.070Z,14.97
2019-05-13T10:20:58.792Z,15.60
2019-05-13T10:23:32.933Z,16.13
2019-05-13T10:26:13.636Z,15.84
2019-05-13T10:28:44.987Z,17.29
2019-05-13T10:31:17.797Z,18.00
2019-05-13T10:33:51.385Z,16.68
2019-05-13T10:36:24.324Z,17.17
2019-05-13T10:38:57.024Z,17.13
2019-05-13T10:41:33.006Z,16.62
2019-05-13T10:44:04.474Z,17.36
2019-05-13T10:46:37.189Z,18.00
2019-05-13T10:49:12.232Z,18.39
2019-05-13T10:51:44.385Z,18.77
2019-05-13T10:54:17.097Z,18.26
2019-05-13T10:56:53.090Z,18.02
2019-05-13T10:59:24.411Z,18.82
2019-05-13T11:01:57.090Z,18.61
2019-05-13T11:04:32.048Z,17.73
2019-05-13T11:07:04.504Z,17.71
2019-05-13T11:09:37.561Z,17.81
2019-05-13T11:12:12.187Z,17.66
2019-05-13T11:14:46.735Z,16.72
2019-05-13T11:17:25.620Z,14.19
2019-05-13T11:19:53.685Z,13.44
2019-05-13T11:22:26.483Z,13.19
2019-05-13T11:24:59.401Z,14.27
2019-05-13T11:27:33.536Z,15.46
2019-05-13T11:30:07.976Z,15.58
2019-05-13T11:32:42.684Z,15.84
2019-05-13T11:35:15.713Z,15.96
2019-05-13T11:37:48.446Z,15.95
2019-05-13T11:40:22.514Z,16.58
2019-05-13T11:42:55.365Z,16.16
2019-05-13T11:45:28.192Z,16.09
2019-05-13T11:48:02.283Z,16.99
2019-05-13T11:50:35.150Z,16.18
2019-05-13T11:53:30.034Z,16.41
2019-05-13T11:55:42.565Z,16.24
2019-05-13T11:58:15.327Z,16.11
2019-05-13T12:00:57.947Z,16.38
2019-05-13T12:03:32.472Z,14.69
2019-05-13T12:06:05.242Z,16.47
2019-05-13T12:08:37.943Z,16.24
2019-05-13T12:11:14.087Z,16.13
2019-05-13T12:13:45.186Z,15.40
2019-05-13T12:16:17.969Z,14.80
2019-05-13T12:18:52.562Z,14.54
2019-05-13T12:21:25.128Z,13.77
2019-05-13T12:23:58.172Z,13.83
2019-05-13T12:26:33.266Z,14.36
2019-05-13T12:29:05.634Z,16.60
2019-05-13T12:31:38.357Z,17.19
2019-05-13T12:34:13.047Z,16.81
2019-05-13T12:36:45.537Z,17.64
2019-05-13T12:39:18.288Z,16.83
2019-05-13T12:41:53.538Z,15.60
2019-05-13T12:44:25.394Z,14.79
2019-05-13T12:46:58.207Z,14.24
2019-05-13T12:49:33.522Z,14.64
2019-05-13T12:52:05.335Z,16.32
2019-05-13T12:54:38.037Z,15.12
2019-05-13T12:57:13.226Z,14.75
2019-05-13T12:59:45.236Z,14.07
2019-05-13T13:02:18.032Z,14.82
2019-05-13T13:05:09.297Z,16.96
2019-05-13T13:07:25.331Z,15.39
2019-05-13T13:09:58.253Z,16.95
2019-05-13T13:12:35.960Z,15.60
2019-05-13T13:15:31.737Z,15.29
2019-05-13T13:17:41.467Z,15.23
2019-05-13T13:20:15.614Z,15.78
2019-05-13T13:22:48.528Z,16.84
2019-05-13T13:25:23.836Z,18.45
2019-05-13T13:28:15.243Z,17.66
2019-05-13T13:30:35.044Z,16.81
2019-05-13T13:33:04.683Z,16.73
2019-05-13T13:35:37.725Z,15.85
2019-05-13T13:38:10.565Z,15.97
2019-05-13T13:40:45.677Z,15.62
2019-05-13T13:43:18.281Z,15.07
2019-05-13T13:46:17.143Z,14.35
2019-05-13T13:48:26.156Z,13.69
2019-05-13T13:50:58.849Z,13.41
2019-05-13T13:53:33.249Z,13.71
2019-05-13T13:56:06.295Z,14.18
2019-05-13T13:58:43.363Z,14.32
2019-05-13T14:01:18.429Z,14.83
2019-05-13T14:03:47.912Z,15.39
2019-05-13T14:07:22.850Z,16.09
2019-05-13T14:08:55.064Z,16.66
2019-05-13T14:11:27.768Z,17.64
2019-05-13T14:14:02.186Z,17.63
2019-05-13T14:16:35.380Z,16.80
2019-05-13T14:19:08.686Z,17.41
2019-05-13T14:21:41.740Z,17.16
2019-05-13T14:24:14.490Z,16.58
2019-05-13T14:26:47.173Z,16.11
2019-05-13T14:29:21.339Z,14.77
2019-05-13T14:31:54.358Z,14.75
2019-05-13T14:34:27.223Z,14.03
2019-05-13T14:37:01.183Z,14.12
2019-05-13T14:39:36.104Z,14.03
2019-05-13T14:42:08.534Z,13.32
2019-05-13T14:44:41.306Z,13.23
2019-05-13T14:47:14.254Z,13.15
2019-05-13T14:49:46.977Z,14.28
2019-05-13T14:52:22.092Z,15.96
2019-05-13T14:54:54.190Z,16.11
2019-05-13T14:57:26.915Z,15.92
2019-05-13T15:00:02.199Z,16.75
2019-05-13T15:02:35.965Z,16.32
2019-05-13T15:05:11.998Z,15.81
2019-05-13T15:07:44.623Z,15.05
2019-05-13T15:10:17.946Z,14.09
2019-05-13T15:12:52.421Z,13.82
2019-05-13T15:15:25.129Z,14.60
2019-05-13T15:17:57.895Z,15.35
2019-05-13T15:20:33.077Z,15.37
2019-05-13T15:23:05.067Z,14.80
2019-05-13T15:25:38.238Z,14.60
2019-05-13T15:28:11.975Z,14.31
2019-05-13T15:30:45.027Z,13.66
2019-05-13T15:33:17.767Z,13.92
2019-05-13T15:35:51.923Z,13.61
2019-05-13T15:38:24.824Z,13.41
2019-05-13T15:40:57.522Z,14.41
2019-05-13T15:43:31.921Z,15.01
2019-05-13T15:46:04.626Z,16.15
2019-05-13T15:48:37.582Z,16.19
2019-05-13T15:51:11.279Z,15.31
2019-05-13T15:53:44.233Z,14.91
2019-05-13T15:56:16.980Z,13.98
2019-05-13T15:58:52.662Z,13.44
2019-05-13T16:01:24.597Z,13.21
2019-05-13T16:03:57.267Z,13.06
2019-05-13T16:06:32.138Z,13.72
2019-05-13T16:09:06.446Z,13.61
2019-05-13T16:11:41.462Z,13.39
2019-05-13T16:14:13.721Z,12.54
2019-05-13T16:16:46.571Z,12.08
2019-05-13T16:19:19.866Z,13.45
2019-05-13T16:21:53.881Z,14.69
2019-05-13T16:24:26.666Z,14.38
2019-05-13T16:26:59.347Z,14.32
2019-05-13T16:29:32.229Z,14.90
2019-05-13T16:32:05.381Z,14.90
2019-05-13T16:34:38.292Z,14.83
2019-05-13T16:37:11.772Z,15.31
2019-05-13T16:39:44.543Z,15.83
2019-05-13T16:42:17.396Z,15.51
2019-05-13T16:44:51.619Z,14.71
2019-05-13T16:47:24.470Z,14.18
2019-05-13T16:49:57.270Z,13.06
2019-05-13T16:52:31.804Z,12.59
2019-05-13T16:55:05.020Z,12.37
2019-05-13T16:57:37.786Z,12.45
2019-05-13T17:00:11.811Z,12.51
2019-05-13T17:02:44.513Z,12.45
2019-05-13T17:05:17.628Z,12.35
2019-05-13T17:07:51.547Z,12.13
2019-05-13T17:10:24.373Z,12.14
2019-05-13T17:12:57.119Z,12.23
2019-05-13T17:15:31.159Z,12.11
2019-05-13T17:18:11.720Z,12.06
2019-05-13T17:20:38.432Z,12.08
2019-05-13T17:23:12.395Z,11.96
2019-05-13T17:25:45.345Z,11.92
2019-05-13T17:28:18.660Z,12.08
2019-05-13T17:30:52.042Z,12.25
2019-05-13T17:33:25.107Z,12.46
2019-05-13T17:35:57.747Z,12.60
2019-05-13T17:38:32.353Z,12.74
2019-05-13T17:41:05.407Z,12.72
2019-05-13T17:43:38.227Z,12.61
2019-05-13T17:46:10.953Z,12.61
2019-05-13T17:48:43.689Z,12.25
2019-05-13T17:51:16.630Z,12.05
2019-05-13T17:53:51.901Z,11.67
2019-05-13T17:56:23.937Z,11.56
2019-05-13T17:58:56.638Z,11.45
2019-05-13T18:01:31.699Z,11.31
2019-05-13T18:04:04.216Z,11.19
2019-05-13T18:06:36.952Z,11.09
2019-05-13T18:09:11.884Z,10.89
2019-05-13T18:11:44.239Z,11.05
2019-05-13T18:14:17.010Z,10.94
2019-05-13T18:16:49.864Z,10.89
2019-05-13T18:19:25.564Z,10.76
2019-05-13T18:21:56.967Z,10.70
2019-05-13T18:24:31.934Z,10.64
2019-05-13T18:27:04.235Z,10.48
2019-05-13T18:29:36.991Z,10.18
2019-05-13T18:32:12.154Z,9.97
2019-05-13T18:34:44.279Z,10.16
2019-05-13T18:37:17.064Z,10.29
2019-05-13T18:39:51.885Z,10.41
2019-05-13T18:42:24.195Z,10.19
2019-05-13T18:44:56.878Z,10.11
2019-05-13T18:47:31.597Z,10.19
2019-05-13T18:50:04.421Z,10.01
2019-05-13T18:52:37.246Z,9.88
2019-05-13T18:55:12.244Z,9.57
2019-05-13T18:57:44.389Z,9.31
2019-05-13T19:00:17.313Z,9.03
2019-05-13T19:02:50.058Z,9.05
2019-05-13T19:05:22.775Z,8.96
2019-05-13T19:07:55.525Z,9.23
2019-05-13T19:10:28.374Z,9.25
2019-05-13T19:13:01.697Z,8.97
2019-05-13T19:15:34.478Z,8.86
2019-05-13T19:18:07.243Z,8.75
2019-05-13T19:20:41.849Z,8.94
2019-05-13T19:23:14.352Z,9.12
2019-05-13T19:25:47.157Z,8.86
2019-05-13T19:28:22.127Z,8.74
2019-05-13T19:30:56.688Z,8.63
2019-05-13T19:33:28.793Z,8.29
2019-05-13T19:36:01.738Z,8.12
2019-05-13T19:38:34.431Z,8.59
2019-05-13T19:41:07.120Z,8.61
2019-05-13T19:43:41.484Z,8.51
2019-05-13T19:46:14.119Z,8.35
2019-05-13T19:48:46.790Z,8.16
2019-05-13T19:51:21.588Z,8.03
2019-05-13T19:53:53.679Z,7.95
2019-05-13T19:56:27.230Z,7.84
2019-05-13T19:59:01.566Z,8.23
2019-05-13T20:01:34.556Z,8.23
2019-05-13T20:04:07.344Z,8.43
2019-05-13T20:06:41.454Z,8.57
2019-05-13T20:09:14.352Z,8.44
2019-05-13T20:11:47.050Z,8.54
2019-05-13T20:14:22.220Z,8.19
2019-05-13T20:16:54.265Z,8.49
2019-05-13T20:19:27.096Z,8.55
2019-05-13T20:22:02.193Z,8.57
2019-05-13T20:24:34.042Z,8.50
2019-05-13T20:27:06.977Z,8.64
2019-05-13T20:29:41.567Z,8.56
2019-05-13T20:32:15.017Z,8.47
2019-05-13T20:34:47.693Z,8.33
2019-05-13T20:37:21.495Z,8.33
2019-05-13T20:39:54.310Z,8.49
2019-05-13T20:42:27.132Z,8.50
2019-05-13T20:45:02.267Z,8.52
2019-05-13T20:47:34.169Z,8.37
2019-05-13T20:50:07.814Z,8.49
2019-05-13T20:52:42.027Z,8.16
2019-05-13T20:55:15.016Z,7.79
2019-05-13T20:57:47.749Z,7.40
2019-05-13T21:00:21.148Z,7.38
2019-05-13T21:02:53.778Z,7.21
2019-05-13T21:05:26.583Z,7.18
2019-05-13T21:08:01.631Z,7.09
2019-05-13T21:10:33.766Z,7.16
2019-05-13T21:13:06.639Z,7.46
2019-05-13T21:15:38.837Z,7.50
2019-05-13T21:18:11.591Z,7.40
2019-05-13T21:20:44.321Z,7.39
2019-05-13T21:23:16.993Z,7.37
2019-05-13T21:25:51.097Z,7.13
2019-05-13T21:28:23.957Z,6.85
2019-05-13T21:30:56.630Z,6.63
2019-05-13T21:33:31.314Z,6.98
2019-05-13T21:36:03.741Z,6.90
2019-05-13T21:38:36.467Z,7.09
2019-05-13T21:41:09.131Z,6.93
2019-05-13T21:43:41.835Z,6.86
2019-05-13T21:46:14.535Z,6.79
2019-05-13T21:48:47.235Z,6.41
2019-05-13T21:51:22.163Z,6.13
2019-05-13T21:53:54.224Z,5.95
2019-05-13T21:56:26.849Z,5.71
2019-05-13T21:59:01.418Z,5.60
2019-05-13T22:01:33.988Z,5.61
2019-05-13T22:04:06.802Z,5.46
2019-05-13T22:06:39.538Z,5.39
2019-05-13T22:09:12.470Z,5.33
2019-05-13T22:11:45.059Z,5.43
2019-05-13T22:14:17.669Z,5.41
2019-05-13T22:16:51.791Z,5.70
2019-05-13T22:19:24.476Z,5.98
2019-05-13T22:21:57.289Z,5.96
2019-05-13T22:24:31.219Z,5.95
2019-05-13T22:27:04.053Z,5.93
2019-05-13T22:29:36.265Z,5.82
2019-05-13T22:32:11.157Z,6.38
2019-05-13T22:34:43.212Z,6.42
2019-05-13T22:37:15.048Z,6.31
2019-05-13T22:39:47.284Z,6.57
2019-05-13T22:42:21.473Z,7.01
2019-05-13T22:44:53.678Z,6.96
2019-05-13T22:47:26.372Z,7.18
2019-05-13T22:49:59.128Z,7.32
2019-05-13T22:52:31.932Z,7.40
2019-05-13T22:55:04.807Z,7.43
2019-05-13T22:57:37.416Z,7.65
2019-05-13T23:00:11.934Z,7.52
2019-05-13T23:02:44.870Z,7.34
2019-05-13T23:05:17.513Z,7.14
2019-05-13T23:07:51.424Z,7.15
2019-05-13T23:10:24.223Z,7.17
2019-05-13T23:12:56.979Z,7.31
2019-05-13T23:15:29.677Z,7.20
2019-05-13T23:18:02.362Z,7.32
2019-05-13T23:20:34.971Z,7.42
2019-05-13T23:23:07.649Z,7.49
2019-05-13T23:25:42.993Z,7.37
2019-05-13T23:28:14.639Z,7.67
2019-05-13T23:30:47.298Z,7.61
2019-05-13T23:33:21.921Z,7.48
2019-05-13T23:35:54.339Z,7.54
2019-05-13T23:38:27.031Z,7.62
2019-05-13T23:41:01.880Z,7.61
2019-05-13T23:43:34.001Z,7.32
2019-05-13T23:46:06.732Z,7.28
2019-05-13T23:48:41.288Z,7.30
2019-05-13T23:51:13.990Z,7.12
2019-05-13T23:53:46.675Z,7.20
2019-05-13T23:56:21.633Z,7.32
2019-05-13T23:58:53.676Z,7.23
